Time;durP1;ratioP1;P1;durP2;ratioP2;P2;SDS_P1;SDS_P2;PMS_P1;PMS_P2;Temp;Humidity;BMP_temperature;BMP_pressure;BME280_temperature;BME280_humidity;BME280_pressure;Samples;Min_cycle;Max_cycle;Signal;HPM_P1;HPM_P2
2022/06/09 00:01:32;;;;;;;4.13;2.07;;;13.80;99.90;;;;;;5071264;28;20485;-69
2022/06/09 00:04:03;;;;;;;2.97;2.27;;;13.90;99.90;;;;;;5072215;28;20489;-68
2022/06/09 00:06:37;;;;;;;5.87;2.93;;;14.00;99.90;;;;;;5071879;28;20972;-69
2022/06/09 00:09:05;;;;;;;3.27;1.87;;;14.10;99.90;;;;;;5072607;28;20447;-69
2022/06/09 00:11:36;;;;;;;3.97;2.07;;;14.10;99.90;;;;;;5071461;28;20467;-69
2022/06/09 00:14:05;;;;;;;2.60;1.60;;;14.20;99.90;;;;;;5072304;28;20491;-69
2022/06/09 00:16:32;;;;;;;2.50;1.70;;;14.30;99.90;;;;;;5071673;28;20450;-70
2022/06/09 00:18:59;;;;;;;2.47;1.40;;;14.30;99.90;;;;;;5072201;28;21017;-69
2022/06/09 00:21:25;;;;;;;2.27;1.33;;;14.40;99.90;;;;;;5071371;28;20467;-68
2022/06/09 00:23:52;;;;;;;2.83;1.60;;;14.40;99.90;;;;;;5072000;28;20482;-69
2022/06/09 00:26:19;;;;;;;3.90;1.90;;;14.40;99.90;;;;;;5071688;28;20443;-69
2022/06/09 00:28:47;;;;;;;2.20;1.67;;;14.50;99.90;;;;;;5071841;28;20524;-69
2022/06/09 00:31:15;;;;;;;2.67;1.40;;;14.50;99.90;;;;;;5070865;28;20467;-69
2022/06/09 00:33:42;;;;;;;2.97;1.33;;;14.50;99.90;;;;;;5071785;28;20953;-69
2022/06/09 00:36:09;;;;;;;2.53;1.20;;;14.60;99.90;;;;;;5071577;28;20451;-69
2022/06/09 00:38:35;;;;;;;3.17;1.30;;;14.60;99.90;;;;;;5071802;28;20455;-69
2022/06/09 00:41:03;;;;;;;2.63;1.40;;;14.50;99.90;;;;;;5070776;28;20473;-68
2022/06/09 00:43:30;;;;;;;2.70;1.33;;;14.60;99.90;;;;;;5071571;28;20823;-69
2022/06/09 00:46:06;;;;;;;1.80;1.10;;;14.60;99.90;;;;;;5071486;28;20458;-68
2022/06/09 00:48:43;;;;;;;3.13;1.20;;;14.60;99.90;;;;;;5071753;28;20442;-69
2022/06/09 00:51:19;;;;;;;1.90;1.00;;;14.60;99.90;;;;;;5070710;28;20482;-68
2022/06/09 00:53:47;;;;;;;1.97;1.07;;;14.70;99.90;;;;;;5071439;28;20439;-70
2022/06/09 00:56:16;;;;;;;2.50;1.00;;;14.60;99.90;;;;;;5071015;28;20451;-69
2022/06/09 00:58:46;;;;;;;2.07;1.17;;;14.60;99.90;;;;;;5071310;28;20490;-70
2022/06/09 01:01:16;;;;;;;2.37;1.30;;;14.70;99.90;;;;;;5070525;28;20486;-69
2022/06/09 01:03:51;;;;;;;2.77;1.27;;;14.70;99.90;;;;;;5071411;28;20857;-69
2022/06/09 01:06:22;;;;;;;3.23;1.10;;;14.70;99.90;;;;;;5071094;28;20832;-69
2022/06/09 01:08:58;;;;;;;2.73;1.20;;;14.60;99.90;;;;;;5071445;28;20451;-69
2022/06/09 01:11:25;;;;;;;2.07;1.10;;;14.60;99.90;;;;;;5070597;28;20466;-69
2022/06/09 01:13:52;;;;;;;3.60;1.10;;;14.50;99.90;;;;;;5071318;28;20518;-69
2022/06/09 01:16:25;;;;;;;1.80;1.07;;;14.40;99.90;;;;;;5070879;28;20455;-69
2022/06/09 01:19:19;;;;;;;1.63;0.80;;;14.40;99.90;;;;;;5071176;28;20450;-69
2022/06/09 01:22:19;;;;;;;1.90;1.10;;;14.40;99.90;;;;;;5070532;28;20474;-69
2022/06/09 01:25:16;;;;;;;2.57;1.00;;;14.40;99.90;;;;;;5045106;28;20451;-69
2022/06/09 01:28:05;;;;;;;2.07;1.03;;;14.40;99.90;;;;;;5071307;28;20446;-69
2022/06/09 01:30:46;;;;;;;2.30;1.20;;;14.30;99.90;;;;;;5070284;28;20448;-69
2022/06/09 01:33:21;;;;;;;4.27;1.00;;;14.30;99.90;;;;;;5070532;28;20435;-69
2022/06/09 01:35:54;;;;;;;2.53;1.10;;;14.30;99.90;;;;;;5070531;28;21062;-70
2022/06/09 01:38:21;;;;;;;2.30;0.83;;;14.20;99.90;;;;;;5071005;28;20443;-69
2022/06/09 01:40:48;;;;;;;2.57;1.20;;;14.10;99.90;;;;;;5070217;28;20802;-70
2022/06/09 01:43:15;;;;;;;1.73;0.80;;;14.10;99.90;;;;;;5070481;28;20471;-70
2022/06/09 01:45:53;;;;;;;1.90;0.80;;;14.10;99.90;;;;;;5070093;28;20443;-69
2022/06/09 01:48:24;;;;;;;2.03;1.03;;;14.00;99.90;;;;;;5070374;28;20455;-69
2022/06/09 01:50:55;;;;;;;1.90;1.10;;;14.00;99.90;;;;;;5069588;28;20475;-69
2022/06/09 01:53:27;;;;;;;3.07;1.00;;;14.00;99.90;;;;;;5070168;28;20960;-69
2022/06/09 01:55:58;;;;;;;2.20;1.10;;;13.90;99.90;;;;;;5070057;28;20447;-69
2022/06/09 01:58:31;;;;;;;1.70;0.97;;;13.90;99.90;;;;;;5070243;28;20489;-69
2022/06/09 02:01:02;;;;;;;1.90;0.73;;;13.90;99.90;;;;;;5069414;28;20574;-69
2022/06/09 02:03:33;;;;;;;4.20;1.10;;;13.90;99.90;;;;;;5070285;28;20494;-68
2022/06/09 02:06:01;;;;;;;1.80;1.00;;;13.90;99.90;;;;;;5069975;28;20443;-69
2022/06/09 02:08:29;;;;;;;2.50;1.10;;;13.90;99.90;;;;;;5070052;28;20826;-69
2022/06/09 02:10:59;;;;;;;2.70;1.30;;;13.80;99.90;;;;;;5069122;28;20885;-69
2022/06/09 02:13:29;;;;;;;3.33;1.03;;;13.80;99.90;;;;;;5070214;28;20548;-69
2022/06/09 02:16:01;;;;;;;2.43;1.07;;;13.80;99.90;;;;;;5070005;28;20451;-69
2022/06/09 02:18:30;;;;;;;2.83;1.50;;;13.80;99.90;;;;;;5070140;28;20451;-69
2022/06/09 02:21:01;;;;;;;2.50;1.00;;;13.80;99.90;;;;;;5069219;28;20843;-69
2022/06/09 02:23:29;;;;;;;3.50;1.30;;;13.80;99.90;;;;;;5070023;28;20959;-69
2022/06/09 02:25:56;;;;;;;2.97;1.50;;;13.80;99.90;;;;;;5069479;28;20465;-69
2022/06/09 02:28:23;;;;;;;2.70;1.43;;;13.80;99.90;;;;;;5070149;28;20546;-69
2022/06/09 02:30:50;;;;;;;2.87;1.53;;;13.80;99.90;;;;;;5069071;28;20474;-68
2022/06/09 02:33:19;;;;;;;3.70;1.53;;;13.80;99.90;;;;;;5069816;28;20976;-68
2022/06/09 02:35:46;;;;;;;3.73;1.97;;;13.80;99.90;;;;;;5069408;28;20451;-68
2022/06/09 02:38:13;;;;;;;4.53;1.70;;;13.80;99.90;;;;;;5069532;28;20447;-69
2022/06/09 02:40:40;;;;;;;3.43;1.53;;;13.80;99.90;;;;;;5068998;28;20542;-70
2022/06/09 02:43:06;;;;;;;3.13;1.47;;;13.70;99.90;;;;;;5069523;28;21018;-68
2022/06/09 02:45:33;;;;;;;3.27;1.77;;;13.70;99.90;;;;;;5068477;28;20542;-71
2022/06/09 02:48:01;;;;;;;4.13;1.30;;;13.60;99.90;;;;;;5069760;28;20552;-69
2022/06/09 02:50:30;;;;;;;3.13;1.80;;;13.60;99.90;;;;;;5069243;28;20478;-69
2022/06/09 02:52:58;;;;;;;3.63;1.60;;;13.70;99.90;;;;;;5069673;28;20880;-69
2022/06/09 02:55:26;;;;;;;2.30;1.70;;;13.60;99.90;;;;;;5069484;28;20469;-69
2022/06/09 02:57:52;;;;;;;2.83;1.43;;;13.60;99.90;;;;;;5069729;28;20449;-69
2022/06/09 03:00:19;;;;;;;6.20;1.93;;;13.60;99.90;;;;;;5068654;28;20566;-69
2022/06/09 03:02:53;;;;;;;4.57;1.60;;;13.50;99.90;;;;;;5069847;28;20459;-69
2022/06/09 03:05:21;;;;;;;4.17;1.90;;;13.50;99.90;;;;;;5069019;28;21148;-70
2022/06/09 03:07:49;;;;;;;2.67;1.63;;;13.50;99.90;;;;;;5069770;28;20447;-69
2022/06/09 03:10:16;;;;;;;3.80;1.90;;;13.50;99.90;;;;;;5068663;28;21028;-70
2022/06/09 03:12:44;;;;;;;3.63;1.80;;;13.50;99.90;;;;;;5069354;28;20455;-70
2022/06/09 03:15:12;;;;;;;3.50;1.97;;;13.50;99.90;;;;;;5069104;28;20495;-69
2022/06/09 03:17:39;;;;;;;3.83;2.43;;;13.50;99.90;;;;;;5069408;28;20443;-69
2022/06/09 03:20:10;;;;;;;3.93;2.00;;;13.50;99.90;;;;;;5068492;28;20562;-69
2022/06/09 03:22:37;;;;;;;3.40;1.87;;;13.50;99.90;;;;;;5069330;28;21016;-69
2022/06/09 03:25:06;;;;;;;5.53;1.83;;;13.50;99.90;;;;;;5069093;28;20482;-70
2022/06/09 03:27:33;;;;;;;3.40;2.10;;;13.50;99.90;;;;;;5069308;28;20439;-69
2022/06/09 03:30:01;;;;;;;4.50;2.17;;;13.50;99.90;;;;;;5068458;28;20455;-67
2022/06/09 03:32:27;;;;;;;3.53;2.80;;;13.50;99.90;;;;;;5069234;28;20824;-69
2022/06/09 03:34:55;;;;;;;3.70;1.97;;;13.50;99.90;;;;;;5069166;28;20439;-69
2022/06/09 03:37:23;;;;;;;5.20;2.10;;;13.50;99.90;;;;;;5069514;28;20538;-69
2022/06/09 03:39:50;;;;;;;2.87;2.07;;;13.50;99.90;;;;;;5068723;28;20832;-69
2022/06/09 03:42:18;;;;;;;4.63;2.53;;;13.60;99.90;;;;;;5069241;28;20467;-69
2022/06/09 03:44:46;;;;;;;6.20;2.73;;;13.60;99.90;;;;;;5068896;28;20506;-68
2022/06/09 03:47:13;;;;;;;8.43;3.20;;;13.70;99.90;;;;;;5069436;28;20443;-69
2022/06/09 03:49:40;;;;;;;5.73;2.27;;;13.70;99.90;;;;;;5068995;28;20449;-68
2022/06/09 03:52:07;;;;;;;4.97;2.53;;;13.70;99.90;;;;;;5068656;28;20532;-69
2022/06/09 03:54:34;;;;;;;5.10;2.47;;;13.70;99.90;;;;;;5068951;28;20531;-69
2022/06/09 03:57:01;;;;;;;4.17;2.30;;;13.70;99.90;;;;;;5071549;28;20461;-68
2022/06/09 03:59:29;;;;;;;6.90;2.63;;;13.70;99.90;;;;;;5072989;28;20447;-68
2022/06/09 04:01:56;;;;;;;5.80;2.63;;;13.70;99.90;;;;;;5072090;28;20923;-69
2022/06/09 04:04:23;;;;;;;5.27;2.83;;;13.70;99.90;;;;;;5072666;28;20493;-69
2022/06/09 04:06:50;;;;;;;4.37;2.70;;;13.70;99.90;;;;;;5073067;28;20454;-70
2022/06/09 04:09:16;;;;;;;5.00;2.90;;;13.70;99.90;;;;;;5073442;28;20447;-69
2022/06/09 04:11:43;;;;;;;4.90;3.33;;;13.70;99.90;;;;;;5072232;28;20551;-70
2022/06/09 04:14:10;;;;;;;7.10;3.20;;;13.70;99.90;;;;;;5072805;28;20447;-70
2022/06/09 04:16:44;;;;;;;8.90;3.00;;;13.80;99.90;;;;;;5072534;28;20443;-69
2022/06/09 04:19:13;;;;;;;3.97;2.77;;;13.80;99.90;;;;;;5072531;28;20443;-69
2022/06/09 04:21:40;;;;;;;5.60;2.80;;;13.80;99.90;;;;;;5071525;28;20637;-70
2022/06/09 04:24:08;;;;;;;5.30;3.17;;;13.80;99.90;;;;;;5072384;28;20439;-71
2022/06/09 04:26:37;;;;;;;9.93;3.30;;;13.80;99.90;;;;;;5071781;28;20865;-70
2022/06/09 04:29:06;;;;;;;4.93;3.10;;;13.80;99.90;;;;;;5072512;28;20459;-70
2022/06/09 04:31:32;;;;;;;6.90;2.90;;;13.80;99.90;;;;;;5071401;28;20467;-70
2022/06/09 04:34:04;;;;;;;5.00;2.83;;;13.90;99.90;;;;;;5072267;28;21019;-70
2022/06/09 04:36:31;;;;;;;4.30;3.20;;;13.90;99.90;;;;;;5076615;28;20447;-70
2022/06/09 04:38:58;;;;;;;4.70;2.60;;;13.90;99.90;;;;;;5072355;28;20450;-70
2022/06/09 04:41:25;;;;;;;4.77;3.20;;;13.90;99.90;;;;;;5070903;28;20467;-70
2022/06/09 04:43:51;;;;;;;3.80;2.37;;;13.90;99.90;;;;;;5071802;28;20527;-69
2022/06/09 04:46:20;;;;;;;7.00;2.80;;;13.90;99.90;;;;;;5071354;28;20447;-70
2022/06/09 04:48:47;;;;;;;5.50;2.43;;;13.90;99.90;;;;;;5071801;28;20450;-70
2022/06/09 04:51:18;;;;;;;5.93;2.70;;;13.90;99.90;;;;;;5070943;28;20840;-70
2022/06/09 04:53:45;;;;;;;5.63;2.77;;;13.90;99.90;;;;;;5071835;28;20931;-71
2022/06/09 04:56:14;;;;;;;5.27;2.80;;;13.90;99.90;;;;;;5071350;28;20450;-70
2022/06/09 04:58:41;;;;;;;3.50;2.07;;;13.90;99.90;;;;;;5071421;28;20964;-70
2022/06/09 05:01:15;;;;;;;4.17;2.50;;;13.80;99.90;;;;;;5070865;28;20474;-70
2022/06/09 05:03:42;;;;;;;3.33;2.50;;;13.80;99.90;;;;;;5071335;28;20951;-70
2022/06/09 05:06:09;;;;;;;4.73;2.10;;;13.80;99.90;;;;;;5071088;28;20451;-70
2022/06/09 05:08:38;;;;;;;4.10;2.30;;;13.80;99.90;;;;;;5070610;28;20447;-70
2022/06/09 05:11:08;;;;;;;5.63;2.90;;;13.80;99.90;;;;;;5070459;28;20495;-70
2022/06/09 05:13:35;;;;;;;4.90;2.40;;;13.80;99.90;;;;;;5071180;28;20458;-70
2022/06/09 05:16:02;;;;;;;4.70;2.80;;;13.90;99.90;;;;;;5070678;28;20455;-70
2022/06/09 05:18:31;;;;;;;4.90;2.43;;;13.90;99.90;;;;;;5070957;28;20451;-70
2022/06/09 05:20:59;;;;;;;4.43;2.30;;;14.00;99.90;;;;;;5070005;28;20466;-70
2022/06/09 05:23:27;;;;;;;3.77;2.80;;;13.90;99.90;;;;;;5070997;28;20458;-70
2022/06/09 05:25:58;;;;;;;3.03;2.03;;;13.90;99.90;;;;;;5070457;28;20957;-70
2022/06/09 05:28:26;;;;;;;3.40;2.20;;;13.90;99.90;;;;;;5070870;28;20451;-70
2022/06/09 05:30:54;;;;;;;6.83;3.33;;;13.90;99.90;;;;;;5069875;28;20583;-70
2022/06/09 05:33:21;;;;;;;5.93;2.97;;;13.90;99.90;;;;;;5070655;28;20449;-69
2022/06/09 05:35:49;;;;;;;5.10;2.30;;;13.90;99.90;;;;;;5070449;28;20490;-69
2022/06/09 05:46:32;;;;;;;4.10;2.10;;;14.20;99.90;;;;;;5070218;28;20451;-69
2022/06/09 05:48:59;;;;;;;6.20;2.93;;;14.20;99.90;;;;;;5070362;28;20957;-70
2022/06/09 05:51:26;;;;;;;4.83;2.67;;;14.30;99.90;;;;;;5069527;28;20562;-70
2022/06/09 05:53:53;;;;;;;5.93;2.80;;;14.30;99.90;;;;;;5070093;28;20589;-69
2022/06/09 05:56:21;;;;;;;10.03;2.50;;;14.30;99.90;;;;;;5070037;28;20453;-70
2022/06/09 05:58:48;;;;;;;5.70;2.53;;;14.40;99.90;;;;;;5070670;28;20477;-69
2022/06/09 06:01:16;;;;;;;6.00;2.60;;;14.50;99.90;;;;;;5069537;28;20475;-69
2022/06/09 06:03:44;;;;;;;4.20;2.33;;;14.60;99.90;;;;;;5070205;28;20454;-69
2022/06/09 06:08:57;;;;;;;6.73;2.10;;;14.70;99.90;;;;;;5070345;28;20501;-70
2022/06/09 06:11:25;;;;;;;4.37;2.53;;;14.80;99.90;;;;;;5069440;28;20473;-70
2022/06/09 06:13:54;;;;;;;6.63;2.63;;;14.90;99.90;;;;;;5070253;28;20847;-71
2022/06/09 06:16:21;;;;;;;6.33;2.40;;;14.90;99.90;;;;;;5069730;28;20862;-70
2022/06/09 06:18:48;;;;;;;9.53;2.60;;;14.80;99.90;;;;;;5070041;28;20453;-69
2022/06/09 06:21:15;;;;;;;3.77;2.00;;;14.80;99.90;;;;;;5069076;28;20888;-70
2022/06/09 06:23:42;;;;;;;5.77;2.63;;;14.90;99.90;;;;;;5070201;28;20443;-70
2022/06/09 06:26:10;;;;;;;6.33;3.33;;;14.90;99.90;;;;;;5070016;28;20530;-70
2022/06/09 06:28:39;;;;;;;4.37;2.37;;;15.00;99.90;;;;;;5070233;28;20454;-70
2022/06/09 06:31:06;;;;;;;7.23;2.97;;;15.20;99.90;;;;;;5069203;28;20467;-69
2022/06/09 06:33:33;;;;;;;4.13;2.50;;;15.30;99.90;;;;;;5069918;28;20948;-70
2022/06/09 06:36:00;;;;;;;6.30;2.50;;;15.50;99.90;;;;;;5069809;28;20880;-70
2022/06/09 06:38:26;;;;;;;5.30;2.40;;;15.60;99.90;;;;;;5070221;28;20485;-70
2022/06/09 06:40:54;;;;;;;4.50;2.20;;;15.80;99.90;;;;;;5069343;28;20902;-70
2022/06/09 06:43:21;;;;;;;8.53;2.30;;;16.00;99.90;;;;;;5070151;28;20482;-70
2022/06/09 06:45:50;;;;;;;4.97;2.17;;;16.20;99.90;;;;;;5069569;28;20451;-70
2022/06/09 06:48:17;;;;;;;7.00;2.00;;;16.20;99.90;;;;;;5069906;28;20443;-70
2022/06/09 06:50:43;;;;;;;5.20;2.10;;;16.00;99.90;;;;;;5068929;28;20562;-70
2022/06/09 06:53:12;;;;;;;7.03;2.50;;;16.00;99.90;;;;;;5070138;28;20442;-70
2022/06/09 06:55:40;;;;;;;4.87;2.07;;;16.00;99.90;;;;;;5069548;28;20611;-70
2022/06/09 06:58:07;;;;;;;5.13;2.10;;;16.10;99.90;;;;;;5069850;28;20497;-70
2022/06/09 07:00:35;;;;;;;4.80;1.70;;;16.10;99.90;;;;;;5068484;28;20455;-71
2022/06/09 07:03:04;;;;;;;7.60;2.10;;;16.20;99.90;;;;;;5069755;28;20471;-71
2022/06/09 07:05:31;;;;;;;5.63;2.60;;;16.10;99.90;;;;;;5069323;28;20451;-71
2022/06/09 07:07:58;;;;;;;6.10;2.20;;;16.10;99.90;;;;;;5069505;28;20941;-71
2022/06/09 07:10:25;;;;;;;4.70;2.30;;;16.10;99.90;;;;;;5068783;28;20529;-71
2022/06/09 07:12:52;;;;;;;3.57;1.87;;;16.10;99.90;;;;;;5069505;28;20446;-71
2022/06/09 07:15:19;;;;;;;4.00;1.80;;;16.20;99.90;;;;;;5068881;28;20569;-71
2022/06/09 07:17:46;;;;;;;4.90;2.40;;;16.40;99.90;;;;;;5069707;28;20450;-70
2022/06/09 07:20:15;;;;;;;4.50;1.93;;;16.40;99.90;;;;;;5068798;28;20500;-71
2022/06/09 07:22:42;;;;;;;5.00;2.53;;;16.20;99.90;;;;;;5069301;28;20498;-71
2022/06/09 07:25:10;;;;;;;5.00;2.60;;;16.10;99.90;;;;;;5068950;28;20442;-71
2022/06/09 07:27:37;;;;;;;7.70;2.13;;;16.20;99.90;;;;;;5069385;28;20438;-71
2022/06/09 07:30:06;;;;;;;7.60;2.20;;;16.30;99.90;;;;;;5068443;28;20483;-70
2022/06/09 07:32:33;;;;;;;5.73;1.87;;;16.30;99.90;;;;;;5072400;28;20843;-71
2022/06/09 07:35:00;;;;;;;5.83;2.60;;;16.40;99.90;;;;;;5072789;28;20489;-70
2022/06/09 07:37:29;;;;;;;5.43;1.57;;;16.50;99.90;;;;;;5073498;28;20468;-70
2022/06/09 07:39:55;;;;;;;5.07;1.63;;;16.60;99.90;;;;;;5072250;28;21044;-69
2022/06/09 07:42:22;;;;;;;3.80;1.87;;;16.80;99.90;;;;;;5072626;28;20505;-71
2022/06/09 07:44:49;;;;;;;8.40;1.93;;;17.10;99.90;;;;;;5072414;28;20445;-71
2022/06/09 07:47:16;;;;;;;2.77;1.40;;;17.20;99.90;;;;;;5072782;28;20450;-70
2022/06/09 07:49:45;;;;;;;6.63;1.70;;;17.20;99.90;;;;;;5072671;28;20443;-70
2022/06/09 07:52:15;;;;;;;4.87;2.10;;;17.30;99.90;;;;;;5072455;28;21140;-68
2022/06/09 07:54:43;;;;;;;3.37;1.60;;;17.40;99.90;;;;;;5072177;28;20470;-70
2022/06/09 07:57:11;;;;;;;3.63;1.80;;;17.40;99.90;;;;;;5072776;28;20534;-69
2022/06/09 07:59:39;;;;;;;7.80;2.13;;;17.40;99.90;;;;;;5072539;28;20537;-69
2022/06/09 08:02:06;;;;;;;7.38;2.30;;;17.60;99.90;;;;;;5070783;28;20470;-70
2022/06/09 08:04:33;;;;;;;6.57;2.20;;;17.60;99.90;;;;;;5072157;28;20587;-70
2022/06/09 08:07:02;;;;;;;6.63;2.37;;;17.50;99.90;;;;;;5072475;28;20493;-71
2022/06/09 08:09:29;;;;;;;5.20;1.80;;;17.30;99.90;;;;;;5072250;28;20536;-70
2022/06/09 08:11:57;;;;;;;2.93;1.90;;;17.30;99.90;;;;;;5071698;28;20563;-71
2022/06/09 08:14:25;;;;;;;3.50;1.83;;;17.40;99.90;;;;;;5072232;28;20449;-70
2022/06/09 08:16:52;;;;;;;4.90;1.80;;;17.40;99.90;;;;;;5072299;28;20449;-70
2022/06/09 08:19:19;;;;;;;4.03;1.50;;;17.40;99.90;;;;;;5072170;28;20450;-70
2022/06/09 08:21:46;;;;;;;2.77;1.40;;;17.60;99.90;;;;;;5071266;28;20478;-71
2022/06/09 08:24:14;;;;;;;4.07;1.40;;;17.90;99.90;;;;;;5072242;28;20443;-70
2022/06/09 08:26:41;;;;;;;4.80;1.53;;;18.20;99.90;;;;;;5072086;28;20844;-70
2022/06/09 08:29:10;;;;;;;5.07;1.37;;;18.00;99.90;;;;;;5072057;28;20823;-70
2022/06/09 08:31:37;;;;;;;4.90;2.07;;;17.50;99.90;;;;;;5071205;28;20471;-71
2022/06/09 08:34:04;;;;;;;5.07;1.50;;;17.40;99.90;;;;;;5071976;28;20451;-70
2022/06/09 08:36:31;;;;;;;3.63;1.63;;;17.60;99.90;;;;;;5071350;28;20502;-71
2022/06/09 08:38:58;;;;;;;3.83;1.83;;;17.80;99.90;;;;;;5072084;28;20450;-71
2022/06/09 08:41:35;;;;;;;5.20;1.53;;;18.30;99.90;;;;;;5071126;28;20569;-70
2022/06/09 08:44:13;;;;;;;4.57;1.80;;;18.60;99.90;;;;;;5070557;28;20457;-70
2022/06/09 08:46:48;;;;;;;4.33;1.50;;;18.40;99.90;;;;;;5071477;28;20526;-70
2022/06/09 08:49:29;;;;;;;4.17;1.60;;;18.10;99.90;;;;;;5071905;28;20451;-70
2022/06/09 08:52:00;;;;;;;5.20;2.27;;;17.70;99.90;;;;;;5070759;28;20471;-70
2022/06/09 08:54:32;;;;;;;6.47;1.87;;;17.60;99.90;;;;;;5071302;28;20439;-70
2022/06/09 08:57:02;;;;;;;6.73;1.87;;;17.80;99.90;;;;;;5071706;28;20447;-70
2022/06/09 08:59:37;;;;;;;5.20;1.80;;;18.10;99.90;;;;;;5071525;28;20440;-70
2022/06/09 09:02:19;;;;;;;7.00;1.60;;;18.40;99.90;;;;;;5070716;28;20572;-69
2022/06/09 09:04:47;;;;;;;4.67;1.87;;;18.00;99.90;;;;;;5071190;28;20443;-70
2022/06/09 09:07:20;;;;;;;4.23;1.50;;;17.60;99.90;;;;;;5071413;28;20447;-70
2022/06/09 09:09:48;;;;;;;5.43;2.03;;;17.20;99.90;;;;;;5070719;28;20427;-69
2022/06/09 09:12:22;;;;;;;5.33;2.17;;;17.20;99.90;;;;;;5071401;28;20533;-70
2022/06/09 09:14:57;;;;;;;3.80;1.50;;;17.60;99.90;;;;;;5071179;28;20452;-70
2022/06/09 09:17:34;;;;;;;3.93;1.87;;;17.90;99.90;;;;;;5071096;28;20443;-70
2022/06/09 09:20:10;;;;;;;6.47;1.57;;;18.30;99.90;;;;;;5070445;28;20443;-68
2022/06/09 09:22:43;;;;;;;8.07;1.97;;;18.30;99.90;;;;;;5071065;28;20474;-70
2022/06/09 09:25:23;;;;;;;5.33;1.60;;;18.40;99.90;;;;;;5070796;28;20449;-70
2022/06/09 09:27:56;;;;;;;7.57;2.03;;;18.40;99.90;;;;;;5071009;28;20439;-70
2022/06/09 09:30:31;;;;;;;7.43;1.90;;;18.60;99.90;;;;;;5070100;28;20501;-70
2022/06/09 09:32:58;;;;;;;6.07;1.77;;;18.50;99.90;;;;;;5070727;28;20465;-70
2022/06/09 09:35:33;;;;;;;4.90;2.50;;;18.40;99.90;;;;;;5070665;28;20489;-70
2022/06/09 09:38:02;;;;;;;5.03;1.50;;;18.40;99.90;;;;;;5070890;28;20461;-71
2022/06/09 09:40:31;;;;;;;6.10;1.50;;;18.60;99.90;;;;;;5069821;28;20447;-69
2022/06/09 09:43:00;;;;;;;5.70;1.70;;;18.80;99.90;;;;;;5070114;28;20455;-70
2022/06/09 09:45:35;;;;;;;2.83;1.47;;;18.90;99.90;;;;;;5069929;28;20538;-70
2022/06/09 09:48:04;;;;;;;6.20;1.70;;;19.00;99.90;;;;;;5070240;28;20472;-70
2022/06/09 09:50:38;;;;;;;3.60;1.63;;;19.10;99.90;;;;;;5069305;28;20465;-71
2022/06/09 09:53:21;;;;;;;4.00;1.60;;;18.90;99.90;;;;;;5070425;28;20509;-71
2022/06/09 09:55:52;;;;;;;5.10;1.77;;;18.80;99.90;;;;;;5069565;28;20478;-70
2022/06/09 09:58:26;;;;;;;3.67;1.47;;;19.40;99.90;;;;;;5070211;28;20450;-71
2022/06/09 10:00:56;;;;;;;4.07;1.20;;;19.90;99.90;;;;;;5069270;28;20478;-71
2022/06/09 10:09:13;;;;;;;5.47;1.80;;;21.40;99.90;;;;;;5070206;28;20457;-69
2022/06/09 10:11:58;;;;;;;2.43;1.20;;;21.80;99.90;;;;;;5069242;28;20470;-69
2022/06/09 10:14:48;;;;;;;4.60;1.40;;;22.30;99.90;;;;;;5069558;28;20485;-69
2022/06/09 10:17:33;;;;;;;4.70;1.50;;;22.10;99.90;;;;;;5065860;28;20483;-69
2022/06/09 10:20:08;;;;;;;4.33;1.50;;;22.20;99.90;;;;;;5069236;28;20465;-70
2022/06/09 10:22:38;;;;;;;2.60;1.30;;;22.00;99.90;;;;;;5069985;28;21083;-71
2022/06/09 10:25:19;;;;;;;3.20;1.43;;;21.80;99.90;;;;;;5069373;28;20548;-70
2022/06/09 10:27:52;;;;;;;6.10;1.67;;;22.00;99.90;;;;;;5070016;28;20451;-70
2022/06/09 10:30:27;;;;;;;5.73;1.83;;;21.90;99.90;;;;;;5069070;28;20941;-69
2022/06/09 10:32:59;;;;;;;5.17;1.80;;;21.70;99.90;;;;;;5069748;28;20443;-69
2022/06/09 10:35:33;;;;;;;5.73;1.37;;;21.90;99.90;;;;;;5069089;28;20497;-69
2022/06/09 10:38:06;;;;;;;3.50;1.40;;;22.00;99.90;;;;;;5069558;28;20457;-69
2022/06/09 10:40:39;;;;;;;5.30;1.27;;;22.20;99.90;;;;;;5068456;28;20446;-70
2022/06/09 10:43:16;;;;;;;2.97;1.53;;;22.30;99.50;;;;;;5069680;28;20870;-70
2022/06/09 10:45:50;;;;;;;6.63;1.47;;;22.60;99.90;;;;;;5069113;28;20451;-70
2022/06/09 10:57:06;;;;;;;3.57;1.43;;;21.40;99.90;;;;;;5069662;28;20474;-70
2022/06/09 10:59:38;;;;;;;5.00;1.67;;;20.90;99.90;;;;;;5069548;28;20443;-69
2022/06/09 11:02:13;;;;;;;9.00;2.00;;;20.50;99.90;;;;;;5068618;28;20481;-70
2022/06/09 11:04:42;;;;;;;5.43;1.47;;;21.10;99.90;;;;;;5068942;28;20446;-71
2022/06/09 11:07:27;;;;;;;3.90;1.60;;;21.80;99.90;;;;;;5072013;28;20439;-71
2022/06/09 11:10:02;;;;;;;4.50;1.60;;;22.40;99.90;;;;;;5072595;28;20443;-71
2022/06/09 11:12:39;;;;;;;4.00;1.90;;;22.30;99.90;;;;;;5073269;28;20471;-71
2022/06/09 11:15:23;;;;;;;4.20;1.43;;;22.40;99.90;;;;;;5073226;28;20461;-71
2022/06/09 11:18:03;;;;;;;5.27;1.70;;;21.80;99.90;;;;;;5073443;28;20442;-71
2022/06/09 11:20:42;;;;;;;3.83;1.93;;;21.40;99.90;;;;;;5072310;28;20445;-70
2022/06/09 11:23:20;;;;;;;6.07;2.30;;;20.90;99.90;;;;;;5073063;28;20539;-71
2022/06/09 11:25:57;;;;;;;4.50;1.90;;;20.50;99.90;;;;;;5072695;28;20529;-70
2022/06/09 11:28:40;;;;;;;3.60;1.30;;;20.30;99.90;;;;;;5073365;28;20541;-71
2022/06/09 11:31:36;;;;;;;3.37;1.57;;;20.00;99.90;;;;;;5072281;28;20470;-70
2022/06/09 11:34:19;;;;;;;3.13;1.37;;;20.10;99.90;;;;;;5072988;28;20970;-71
2022/06/09 11:36:57;;;;;;;3.60;1.50;;;20.70;99.90;;;;;;5073095;28;20483;-70
2022/06/09 11:39:43;;;;;;;3.90;1.53;;;21.20;99.60;;;;;;5072871;28;20482;-70
2022/06/09 11:42:18;;;;;;;3.07;1.30;;;21.40;97.80;;;;;;5072434;28;20459;-71
2022/06/09 11:44:48;;;;;;;5.27;1.93;;;21.80;98.90;;;;;;5072684;28;20446;-71
2022/06/09 11:47:18;;;;;;;6.60;1.70;;;22.20;99.90;;;;;;5073063;28;20451;-70
2022/06/09 11:49:48;;;;;;;4.13;1.57;;;22.60;99.90;;;;;;5072407;28;20530;-67
2022/06/09 11:52:21;;;;;;;4.70;1.20;;;22.60;99.90;;;;;;5072720;28;20473;-70
2022/06/09 11:55:03;;;;;;;7.60;1.47;;;22.60;97.20;;;;;;5072948;28;20521;-70
2022/06/09 11:57:48;;;;;;;7.93;1.80;;;22.40;97.60;;;;;;5073029;28;20558;-70
2022/06/09 12:00:38;;;;;;;3.30;1.40;;;22.30;97.70;;;;;;5071892;28;20549;-70
2022/06/09 12:03:41;;;;;;;5.40;2.17;;;22.70;97.70;;;;;;5073099;28;20447;-70
2022/06/09 12:06:22;;;;;;;3.70;1.60;;;23.10;97.80;;;;;;5049312;28;20822;-70
2022/06/09 12:09:05;;;;;;;4.10;1.80;;;23.30;97.60;;;;;;5072617;28;20811;-71
2022/06/09 12:11:55;;;;;;;2.60;1.70;;;23.70;97.80;;;;;;5072049;28;20558;-71
2022/06/09 12:14:26;;;;;;;5.40;1.70;;;23.80;95.80;;;;;;5072132;28;20438;-70
2022/06/09 12:17:08;;;;;;;6.33;2.00;;;23.70;96.30;;;;;;5072091;28;20479;-70
2022/06/09 12:19:37;;;;;;;3.73;1.63;;;23.50;97.70;;;;;;5072341;28;20528;-70
2022/06/09 12:22:42;;;;;;;4.87;1.70;;;23.50;98.30;;;;;;5071457;28;20991;-70
2022/06/09 12:25:33;;;;;;;5.17;1.80;;;24.30;96.10;;;;;;5071871;28;20447;-70
2022/06/09 12:28:01;;;;;;;4.60;1.60;;;24.30;94.70;;;;;;5072014;28;20435;-70
2022/06/09 12:30:35;;;;;;;5.67;1.23;;;24.60;93.70;;;;;;5071309;28;20533;-69
2022/06/09 12:33:31;;;;;;;4.10;1.57;;;24.60;93.10;;;;;;5072292;28;20636;-69
2022/06/09 12:36:03;;;;;;;3.60;1.20;;;24.40;93.10;;;;;;5071751;28;20577;-69
2022/06/09 12:38:34;;;;;;;5.77;1.20;;;24.50;93.80;;;;;;5072279;28;20424;-70
2022/06/09 12:41:12;;;;;;;4.27;1.30;;;24.70;92.40;;;;;;5071139;28;20467;-69
2022/06/09 12:43:42;;;;;;;2.47;1.33;;;24.90;91.80;;;;;;5071806;28;20454;-70
2022/06/09 12:46:20;;;;;;;3.27;1.30;;;24.80;92.40;;;;;;5071492;28;21024;-70
2022/06/09 12:48:47;;;;;;;9.23;1.77;;;24.20;92.50;;;;;;5071610;28;20446;-70
2022/06/09 12:51:21;;;;;;;3.33;1.20;;;23.90;92.70;;;;;;5071013;28;20458;-70
2022/06/09 12:54:01;;;;;;;3.40;1.40;;;23.80;93.70;;;;;;5071960;28;20455;-69
2022/06/09 12:56:37;;;;;;;3.27;1.20;;;23.50;92.10;;;;;;5071201;28;20474;-70
2022/06/09 12:59:17;;;;;;;1.90;0.97;;;23.30;94.20;;;;;;5071424;28;20451;-69
2022/06/09 13:01:53;;;;;;;5.00;1.40;;;23.80;92.20;;;;;;5070557;28;20479;-70
2022/06/09 13:04:22;;;;;;;3.40;1.60;;;23.90;92.80;;;;;;5071170;28;20454;-68
2022/06/09 13:06:50;;;;;;;5.60;1.37;;;23.40;93.60;;;;;;5071321;28;20443;-70
2022/06/09 13:09:20;;;;;;;4.20;1.50;;;23.20;93.80;;;;;;5071163;28;20443;-70
2022/06/09 13:14:36;;;;;;;5.93;2.00;;;24.30;93.50;;;;;;5070725;28;20435;-71
2022/06/09 13:17:09;;;;;;;4.23;1.60;;;25.00;92.20;;;;;;5071067;28;20485;-70
2022/06/09 13:19:38;;;;;;;3.30;1.50;;;24.40;91.00;;;;;;5071084;28;20447;-70
2022/06/09 13:22:14;;;;;;;3.90;1.30;;;24.40;91.50;;;;;;5070133;28;20467;-71
2022/06/09 13:24:43;;;;;;;3.80;1.40;;;25.10;90.30;;;;;;5070803;28;20439;-70
2022/06/09 13:27:16;;;;;;;4.27;1.30;;;25.10;90.20;;;;;;5071013;28;20465;-71
2022/06/09 13:29:56;;;;;;;3.07;1.60;;;25.40;91.10;;;;;;5070028;28;20450;-68
2022/06/09 13:32:28;;;;;;;3.00;1.37;;;25.90;90.80;;;;;;5070569;28;20475;-70
2022/06/09 13:34:58;;;;;;;3.90;2.30;;;24.70;90.00;;;;;;5070632;28;20877;-70
2022/06/09 13:37:39;;;;;;;3.47;1.50;;;23.90;91.00;;;;;;5070519;28;20474;-70